Anna Maria, Florida
Current Conditions -  °F | °C
As of 11:53 AM on Saturday 22 Nov 2014 (Local Time) from KSRQ Reporting Station
Broken Clouds Broken Clouds  
Wind Chill: 78°   Ceiling: 6500
Heat Index: 80°   Visibility: 10mi
Dew Point: 66°   Wind: 22mph
Humidity: 66%   Direction: 100°E
Pressure: 30.14"   Gusts: 29mph
Location:  27.53°N, 82.73°W
Report Text: KSRQ 221653Z 10019G25KT 10SM SCT028 BKN065 26/19 A3014 RMK AO2 PK WND 11027/1643 SLP206 T02560189
Loading
Personal Weather Stations






























Interactive Weather Map New forecast layout! Learn more

10-Day Weather Forecast

Advertisements
Track Severe Weather on mobile